Time;durP1;ratioP1;P1;durP2;ratioP2;P2;SDS_P1;SDS_P2;PMS_P1;PMS_P2;Temp;Humidity;BMP_temperature;BMP_pressure;BME280_temperature;BME280_humidity;BME280_pressure;Samples;Min_cycle;Max_cycle;Signal;HPM_P1;HPM_P2
2023/01/24 00:00:34;;;;;;;35.55;17.15;;;3.30;89.30;;;;;;5017836;28;20590;-62
2023/01/24 00:02:59;;;;;;;40.95;18.85;;;3.30;89.30;;;;;;5024013;28;20126;-61
2023/01/24 00:05:25;;;;;;;36.65;18.02;;;3.30;89.30;;;;;;5021086;28;20029;-61
2023/01/24 00:07:51;;;;;;;40.47;18.17;;;3.30;89.20;;;;;;5020728;28;20079;-61
2023/01/24 00:10:16;;;;;;;39.15;18.92;;;3.30;89.30;;;;;;5018720;28;20072;-60
2023/01/24 00:12:42;;;;;;;34.65;16.92;;;3.30;89.30;;;;;;5019911;28;20033;-62
2023/01/24 00:15:09;;;;;;;38.55;18.80;;;3.30;89.30;;;;;;5022742;28;20038;-60
2023/01/24 00:17:34;;;;;;;38.33;19.02;;;3.30;89.30;;;;;;5024303;28;20553;-62
2023/01/24 00:20:00;;;;;;;41.47;19.70;;;3.30;89.60;;;;;;5015994;28;20079;-61
2023/01/24 00:22:25;;;;;;;38.80;18.38;;;3.30;89.40;;;;;;5019849;28;20516;-62
2023/01/24 00:24:51;;;;;;;39.08;18.90;;;3.30;89.30;;;;;;5018723;28;20416;-62
2023/01/24 00:27:17;;;;;;;42.05;18.92;;;3.30;89.30;;;;;;5020181;28;20393;-61
2023/01/24 00:29:43;;;;;;;40.35;18.95;;;3.30;90.00;;;;;;5019410;28;20497;-62
2023/01/24 00:32:09;;;;;;;46.38;19.98;;;3.30;89.20;;;;;;5020882;28;20033;-62
2023/01/24 00:34:35;;;;;;;39.25;18.40;;;3.30;89.30;;;;;;5019048;28;20025;-62
2023/01/24 00:37:01;;;;;;;39.97;19.02;;;3.30;89.30;;;;;;5019157;28;21237;-62
2023/01/24 00:39:26;;;;;;;43.75;20.70;;;3.30;89.20;;;;;;5018813;28;20044;-61
2023/01/24 00:41:52;;;;;;;38.72;18.52;;;3.30;89.20;;;;;;5018139;28;20460;-61
2023/01/24 00:44:17;;;;;;;35.85;18.55;;;3.30;89.20;;;;;;5017238;28;20029;-61
2023/01/24 00:46:43;;;;;;;38.97;18.77;;;3.30;89.20;;;;;;5019291;28;20582;-62
2023/01/24 00:49:09;;;;;;;43.47;18.98;;;3.30;89.40;;;;;;5023635;28;20041;-61
2023/01/24 00:51:35;;;;;;;37.35;18.60;;;3.30;89.40;;;;;;5019601;28;20033;-61
2023/01/24 00:54:00;;;;;;;38.78;19.00;;;3.30;90.10;;;;;;5016315;28;20066;-61
2023/01/24 00:56:26;;;;;;;37.20;19.20;;;3.30;89.40;;;;;;5021601;28;20208;-62
2023/01/24 00:58:52;;;;;;;41.80;19.33;;;3.30;89.40;;;;;;5017926;28;20513;-62
2023/01/24 01:01:18;;;;;;;41.90;19.27;;;3.30;89.40;;;;;;5016762;28;20087;-61
2023/01/24 01:03:44;;;;;;;41.17;19.92;;;3.30;89.40;;;;;;5023724;28;20052;-61
2023/01/24 01:06:14;;;;;;;34.60;18.50;;;3.30;89.50;;;;;;5023058;28;20123;-61
2023/01/24 01:08:40;;;;;;;34.90;17.27;;;3.30;89.50;;;;;;5023323;28;20029;-61
2023/01/24 01:11:06;;;;;;;35.47;17.40;;;3.30;89.40;;;;;;5019752;28;20404;-62
2023/01/24 01:13:32;;;;;;;36.53;17.92;;;3.30;89.50;;;;;;5019245;28;20658;-61
2023/01/24 01:16:11;;;;;;;36.03;18.30;;;3.30;89.40;;;;;;5018387;28;20045;-61
2023/01/24 01:18:37;;;;;;;38.45;18.48;;;3.30;89.60;;;;;;5021462;28;20452;-61
2023/01/24 01:21:04;;;;;;;41.13;19.23;;;3.30;89.40;;;;;;5019143;28;20041;-62
2023/01/24 01:23:29;;;;;;;36.90;18.10;;;3.30;89.40;;;;;;5019138;28;20037;-62
2023/01/24 01:26:00;;;;;;;36.05;18.83;;;3.30;89.40;;;;;;5019111;28;20036;-62
2023/01/24 01:28:25;;;;;;;35.85;18.17;;;3.30;89.40;;;;;;5020341;28;20412;-61
2023/01/24 01:30:55;;;;;;;33.03;16.60;;;3.30;89.40;;;;;;5016013;28;20072;-62
2023/01/24 01:33:21;;;;;;;36.53;16.77;;;3.30;89.40;;;;;;5021336;28;21173;-62
2023/01/24 01:35:48;;;;;;;32.58;16.88;;;3.30;89.30;;;;;;5018432;28;20037;-62
2023/01/24 01:38:15;;;;;;;37.25;18.58;;;3.40;89.40;;;;;;5018773;28;20033;-62
2023/01/24 01:40:40;;;;;;;32.63;16.85;;;3.40;89.40;;;;;;5013247;28;20041;-62
2023/01/24 01:43:13;;;;;;;35.88;17.98;;;3.40;89.30;;;;;;5020736;28;20051;-62
2023/01/24 01:45:45;;;;;;;33.78;17.40;;;3.40;89.40;;;;;;5020685;28;20087;-62
2023/01/24 01:48:41;;;;;;;33.67;16.88;;;3.40;89.30;;;;;;5020996;28;20057;-61
2023/01/24 01:51:21;;;;;;;31.23;16.02;;;3.40;89.50;;;;;;5017673;28;20041;-62
2023/01/24 01:53:52;;;;;;;31.98;15.32;;;3.40;89.40;;;;;;5020145;28;20041;-62
2023/01/24 01:56:34;;;;;;;30.42;15.32;;;3.40;89.20;;;;;;5020267;28;20041;-63
2023/01/24 01:59:06;;;;;;;29.83;15.13;;;3.40;89.40;;;;;;5021193;28;20033;-62
2023/01/24 02:01:33;;;;;;;30.75;15.52;;;3.30;89.30;;;;;;5017946;28;20071;-62
2023/01/24 02:04:10;;;;;;;28.67;14.75;;;3.40;89.30;;;;;;5022137;28;20033;-62
2023/01/24 02:06:59;;;;;;;30.17;15.23;;;3.40;89.30;;;;;;5015515;28;20040;-62
2023/01/24 02:09:28;;;;;;;27.98;14.68;;;3.40;90.10;;;;;;5019571;28;20040;-63
2023/01/24 02:11:58;;;;;;;28.08;14.48;;;3.40;89.20;;;;;;5020183;28;20033;-63
2023/01/24 02:17:10;;;;;;;27.35;14.65;;;3.40;89.20;;;;;;5023193;28;20041;-62
2023/01/24 02:19:57;;;;;;;27.00;14.63;;;3.40;89.10;;;;;;5021983;28;20033;-61
2023/01/24 02:22:53;;;;;;;27.63;14.63;;;3.40;90.00;;;;;;5021633;28;20042;-62
2023/01/24 02:25:54;;;;;;;27.27;14.57;;;3.40;89.30;;;;;;5023018;28;20037;-62
2023/01/24 02:28:20;;;;;;;28.33;14.20;;;3.40;89.10;;;;;;4942936;28;20163;-60
2023/01/24 02:30:46;;;;;;;28.15;14.65;;;3.40;89.10;;;;;;5005418;28;20115;-62
2023/01/24 02:33:18;;;;;;;28.60;14.13;;;3.40;89.10;;;;;;5021477;28;20103;-62
2023/01/24 02:35:45;;;;;;;27.05;14.35;;;3.40;89.20;;;;;;5027692;28;20124;-62
2023/01/24 02:38:19;;;;;;;24.02;13.50;;;3.40;89.10;;;;;;5023396;28;20033;-62
2023/01/24 02:40:46;;;;;;;30.10;15.60;;;3.40;89.30;;;;;;5020625;28;20025;-62
2023/01/24 02:43:13;;;;;;;27.75;15.35;;;3.40;89.20;;;;;;5023185;28;20417;-62
2023/01/24 02:45:39;;;;;;;25.55;14.35;;;3.40;89.30;;;;;;5021514;28;20443;-63
2023/01/24 02:48:04;;;;;;;25.77;13.77;;;3.30;89.20;;;;;;5023405;28;20086;-62
2023/01/24 02:53:29;;;;;;;26.15;14.00;;;3.30;89.30;;;;;;5023636;28;20037;-63
2023/01/24 02:53:30;;;;;;;26.23;13.77;;;3.30;89.30;;;;;;5022545;28;20112;-63
2023/01/24 02:58:41;;;;;;;24.67;13.18;;;3.40;89.30;;;;;;5021932;28;20044;-62
2023/01/24 03:01:07;;;;;;;25.58;13.57;;;3.40;89.30;;;;;;5023028;28;20037;-62
2023/01/24 03:03:32;;;;;;;26.17;14.13;;;3.40;89.20;;;;;;5025265;28;20583;-61
2023/01/24 03:05:58;;;;;;;26.40;14.13;;;3.40;89.30;;;;;;5022079;28;20037;-61
2023/01/24 03:08:26;;;;;;;27.83;14.20;;;3.30;89.20;;;;;;5026130;28;20421;-63
2023/01/24 03:10:53;;;;;;;25.98;13.82;;;3.30;89.30;;;;;;5025128;28;20179;-61
2023/01/24 03:35:14;;;;;;;22.97;12.80;;;3.30;89.40;;;;;;5019813;28;20036;-62
2023/01/24 03:40:23;;;;;;;21.30;11.82;;;3.30;89.40;;;;;;5024693;28;20099;-62
2023/01/24 03:42:49;;;;;;;24.42;12.90;;;3.30;89.40;;;;;;5021684;28;20045;-63
2023/01/24 03:45:23;;;;;;;21.17;11.85;;;3.30;89.40;;;;;;5021809;28;20040;-63
2023/01/24 03:47:58;;;;;;;21.92;11.45;;;3.30;89.60;;;;;;5023217;28;20038;-63
2023/01/24 03:53:25;;;;;;;22.33;12.10;;;3.30;89.80;;;;;;5024023;28;20264;-62
2023/01/24 03:56:00;;;;;;;25.02;12.85;;;3.30;89.60;;;;;;5017969;28;20132;-62
2023/01/24 03:58:27;;;;;;;;;;;3.30;89.70;;;;;;5017571;28;20537;-63
2023/01/24 04:00:53;;;;;;;18.83;11.00;;;3.40;90.10;;;;;;5020169;28;19920;-63
2023/01/24 04:03:19;;;;;;;23.10;11.65;;;3.30;90.00;;;;;;5021718;28;20061;-63
2023/01/24 04:05:49;;;;;;;22.33;12.23;;;3.30;89.40;;;;;;5018508;28;20048;-61
2023/01/24 04:08:15;;;;;;;21.95;12.20;;;3.30;89.50;;;;;;5021343;28;20064;-63
2023/01/24 04:10:41;;;;;;;23.65;12.23;;;3.40;89.60;;;;;;5017643;28;20125;-61
2023/01/24 04:13:08;;;;;;;22.20;12.52;;;3.30;89.50;;;;;;5019299;28;20398;-62
2023/01/24 04:15:34;;;;;;;18.98;11.05;;;3.30;89.60;;;;;;5021000;28;20040;-62
2023/01/24 04:18:01;;;;;;;19.80;11.77;;;3.40;89.60;;;;;;5021065;28;20029;-62
2023/01/24 04:20:29;;;;;;;19.30;11.88;;;3.40;89.60;;;;;;5023444;28;20042;-62
2023/01/24 04:22:55;;;;;;;21.58;12.25;;;3.40;89.60;;;;;;5017057;28;20048;-62
2023/01/24 04:25:21;;;;;;;20.27;11.45;;;3.40;89.60;;;;;;5022090;28;20041;-63
2023/01/24 04:27:47;;;;;;;22.42;11.98;;;3.40;89.60;;;;;;5019601;28;20041;-62
2023/01/24 04:30:15;;;;;;;21.77;11.88;;;3.40;89.60;;;;;;5021503;28;20041;-62
2023/01/24 04:32:41;;;;;;;20.77;12.02;;;3.40;89.60;;;;;;5017233;28;20030;-62
2023/01/24 04:35:07;;;;;;;21.58;11.75;;;3.40;89.60;;;;;;5021292;28;20242;-63
2023/01/24 04:37:33;;;;;;;20.48;11.57;;;3.40;89.60;;;;;;5019930;28;20651;-62
2023/01/24 04:40:02;;;;;;;20.60;11.30;;;3.20;89.40;;;;;;5020176;28;20030;-63
2023/01/24 04:42:28;;;;;;;20.38;11.70;;;3.40;89.60;;;;;;5020686;28;20176;-63
2023/01/24 04:44:53;;;;;;;19.17;11.07;;;3.40;89.60;;;;;;5018223;28;20045;-63
2023/01/24 04:47:19;;;;;;;19.73;11.23;;;3.50;89.60;;;;;;5019550;28;20041;-63
2023/01/24 04:49:44;;;;;;;20.15;11.90;;;3.50;89.60;;;;;;5015890;28;20037;-63
2023/01/24 04:52:13;;;;;;;18.58;11.57;;;3.50;89.60;;;;;;5019132;28;20033;-63
2023/01/24 04:54:39;;;;;;;21.67;12.00;;;3.50;89.50;;;;;;5022379;28;20396;-62
2023/01/24 04:57:06;;;;;;;22.50;12.52;;;3.50;89.40;;;;;;5017931;28;20583;-63
2023/01/24 04:59:32;;;;;;;21.90;12.70;;;3.50;89.50;;;;;;5016950;28;20041;-61
2023/01/24 05:01:57;;;;;;;20.52;12.30;;;3.50;89.40;;;;;;5020485;28;20542;-62
2023/01/24 05:04:23;;;;;;;22.30;11.35;;;3.50;89.50;;;;;;5019455;28;20641;-62
2023/01/24 05:06:49;;;;;;;19.10;11.40;;;3.50;89.40;;;;;;5022042;28;20033;-62
2023/01/24 05:09:14;;;;;;;21.35;11.95;;;3.50;89.40;;;;;;5022747;28;20041;-63
2023/01/24 05:11:40;;;;;;;21.95;12.02;;;3.50;89.40;;;;;;5022979;28;20501;-63
2023/01/24 05:14:09;;;;;;;21.23;12.10;;;3.50;89.40;;;;;;5016151;28;20033;-63
2023/01/24 05:16:35;;;;;;;23.35;12.60;;;3.60;89.50;;;;;;5021307;28;20103;-64
2023/01/24 05:19:01;;;;;;;22.20;12.88;;;3.50;89.40;;;;;;5022380;28;21726;-63
2023/01/24 05:21:26;;;;;;;23.52;12.50;;;3.50;89.40;;;;;;5021644;28;20156;-63
2023/01/24 05:23:53;;;;;;;24.15;12.88;;;3.50;89.40;;;;;;5016616;28;20034;-63
2023/01/24 05:26:21;;;;;;;23.05;12.45;;;3.50;89.40;;;;;;5020107;28;20674;-63
2023/01/24 05:28:47;;;;;;;22.33;12.70;;;3.60;89.40;;;;;;5019839;28;20033;-61
2023/01/24 05:31:13;;;;;;;22.73;12.90;;;3.60;89.60;;;;;;5024594;28;20091;-63
2023/01/24 05:33:40;;;;;;;23.45;12.40;;;3.50;89.30;;;;;;5022849;28;20046;-64
2023/01/24 05:36:09;;;;;;;21.85;12.43;;;3.60;89.40;;;;;;5023088;28;20121;-63
2023/01/24 05:38:35;;;;;;;22.58;12.50;;;3.50;89.40;;;;;;5022485;28;20048;-64
2023/01/24 05:41:03;;;;;;;22.00;11.73;;;3.60;89.40;;;;;;5024098;28;20164;-64
2023/01/24 05:43:29;;;;;;;20.35;11.98;;;3.50;89.40;;;;;;5019807;28;20038;-63
2023/01/24 05:46:06;;;;;;;20.15;11.52;;;3.50;89.40;;;;;;5023792;28;20044;-63
2023/01/24 05:48:32;;;;;;;19.73;11.70;;;3.60;89.50;;;;;;5025414;28;20038;-63
2023/01/24 05:51:00;;;;;;;21.67;12.43;;;3.60;89.40;;;;;;5028058;28;20042;-63
2023/01/24 05:53:27;;;;;;;20.00;11.80;;;3.60;89.40;;;;;;5027479;28;20619;-63
2023/01/24 05:56:01;;;;;;;20.98;12.43;;;3.60;89.40;;;;;;5028740;28;20048;-64
2023/01/24 05:58:29;;;;;;;22.27;12.27;;;3.50;89.60;;;;;;5027412;28;20042;-64
2023/01/24 06:00:55;;;;;;;21.95;11.85;;;3.60;89.50;;;;;;5028214;28;20052;-64
2023/01/24 06:03:21;;;;;;;22.60;12.23;;;3.60;89.40;;;;;;5028601;28;20037;-64
2023/01/24 06:05:53;;;;;;;22.45;12.45;;;3.50;89.40;;;;;;5027069;28;20319;-63
2023/01/24 06:08:20;;;;;;;22.50;12.43;;;3.60;89.50;;;;;;5028353;28;20083;-64
2023/01/24 06:10:46;;;;;;;20.90;12.07;;;3.60;89.40;;;;;;5029137;28;20033;-63
2023/01/24 06:13:12;;;;;;;22.65;12.02;;;3.50;89.40;;;;;;5027071;28;20458;-63
2023/01/24 06:15:39;;;;;;;21.55;11.68;;;3.50;89.40;;;;;;5027220;28;20037;-63
2023/01/24 06:18:06;;;;;;;21.90;12.38;;;3.60;89.50;;;;;;5028421;28;20519;-64
2023/01/24 06:20:32;;;;;;;22.42;12.45;;;3.60;89.50;;;;;;5026052;28;20048;-64
2023/01/24 06:23:06;;;;;;;21.17;11.75;;;3.60;89.60;;;;;;5028120;28;20041;-63
2023/01/24 06:25:32;;;;;;;23.83;13.05;;;3.60;89.60;;;;;;5027098;28;20493;-63
2023/01/24 06:27:58;;;;;;;24.42;12.85;;;3.60;89.50;;;;;;5027773;28;20033;-63
2023/01/24 06:30:24;;;;;;;22.65;12.95;;;3.60;89.50;;;;;;5026727;28;20026;-63
2023/01/24 06:33:23;;;;;;;24.73;13.32;;;3.60;89.50;;;;;;5025804;28;20792;-63
2023/01/24 06:36:07;;;;;;;23.30;13.02;;;3.60;89.70;;;;;;5027118;28;20064;-63
2023/01/24 06:38:32;;;;;;;25.38;13.82;;;3.60;89.40;;;;;;5026973;28;20119;-64
2023/01/24 06:41:01;;;;;;;24.52;13.88;;;3.60;89.40;;;;;;5027058;28;20063;-63
2023/01/24 06:43:27;;;;;;;26.45;13.60;;;3.60;89.50;;;;;;5026971;28;20034;-64
2023/01/24 06:45:52;;;;;;;26.40;13.07;;;3.60;89.40;;;;;;5026510;28;20037;-63
2023/01/24 06:48:18;;;;;;;28.08;14.32;;;3.60;89.50;;;;;;5025850;28;20584;-64
2023/01/24 06:50:44;;;;;;;26.23;14.07;;;3.60;89.60;;;;;;5027367;28;20124;-64
2023/01/24 06:53:10;;;;;;;28.08;14.48;;;3.60;89.60;;;;;;5026874;28;20500;-64
2023/01/24 06:55:36;;;;;;;28.58;14.73;;;3.60;89.70;;;;;;5026778;28;20110;-64
2023/01/24 06:58:03;;;;;;;32.00;15.13;;;3.60;89.70;;;;;;5027290;28;20030;-64
2023/01/24 07:00:29;;;;;;;29.83;14.73;;;3.60;89.60;;;;;;5024199;28;20111;-64
2023/01/24 07:03:06;;;;;;;29.05;15.05;;;3.60;89.60;;;;;;5026246;28;20052;-64
2023/01/24 07:05:32;;;;;;;29.27;14.55;;;3.60;89.70;;;;;;5028241;28;20038;-64
2023/01/24 07:07:58;;;;;;;30.52;14.30;;;3.60;89.60;;;;;;5028240;28;20052;-64
2023/01/24 07:10:24;;;;;;;34.75;16.08;;;3.60;89.60;;;;;;5025455;28;20034;-63
2023/01/24 07:12:50;;;;;;;30.30;15.30;;;3.60;89.60;;;;;;5041689;28;20072;-63
2023/01/24 07:15:15;;;;;;;35.58;17.23;;;3.60;89.60;;;;;;5028338;28;20029;-63
2023/01/24 07:17:41;;;;;;;33.45;15.68;;;3.60;89.70;;;;;;5025628;28;20037;-64
2023/01/24 07:20:08;;;;;;;33.67;16.13;;;3.60;89.60;;;;;;5023636;28;20381;-63
2023/01/24 07:22:37;;;;;;;35.75;17.27;;;3.60;89.70;;;;;;5023623;28;20045;-63
2023/01/24 07:25:03;;;;;;;33.35;16.65;;;3.50;89.70;;;;;;5026237;28;20433;-64
2023/01/24 07:27:29;;;;;;;34.88;16.35;;;3.50;89.70;;;;;;5026289;28;20040;-64
2023/01/24 07:29:54;;;;;;;33.03;16.15;;;3.50;89.80;;;;;;5024436;28;20572;-63
2023/01/24 07:32:20;;;;;;;35.88;17.08;;;3.50;89.70;;;;;;5025629;28;20026;-63
2023/01/24 07:34:45;;;;;;;31.40;16.30;;;3.50;89.70;;;;;;5025266;28;20542;-64
2023/01/24 07:37:11;;;;;;;31.95;15.85;;;3.50;89.70;;;;;;5027247;28;20508;-64
2023/01/24 07:39:37;;;;;;;33.53;16.63;;;3.50;89.70;;;;;;5025071;28;20514;-63
2023/01/24 07:42:02;;;;;;;32.92;16.33;;;3.50;89.80;;;;;;5027065;28;20034;-64
2023/01/24 07:44:28;;;;;;;35.53;16.23;;;3.50;89.80;;;;;;5024713;28;20038;-64
2023/01/24 07:46:53;;;;;;;32.60;16.48;;;3.50;89.80;;;;;;5026520;28;20067;-64
2023/01/24 07:49:19;;;;;;;31.27;15.52;;;3.50;89.80;;;;;;5026063;28;20051;-63
2023/01/24 07:51:48;;;;;;;27.83;15.20;;;3.50;89.80;;;;;;5026431;28;20382;-64
2023/01/24 07:54:13;;;;;;;30.30;15.98;;;3.50;89.90;;;;;;5026053;28;20025;-64
2023/01/24 07:56:39;;;;;;;27.67;14.55;;;3.50;90.00;;;;;;5025429;28;20033;-64
2023/01/24 07:59:05;;;;;;;28.83;15.35;;;3.50;89.90;;;;;;5024442;28;20514;-63
2023/01/24 08:01:30;;;;;;;29.83;15.55;;;3.50;90.00;;;;;;5025602;28;20120;-62
2023/01/24 08:03:57;;;;;;;30.27;15.23;;;3.40;90.00;;;;;;5026158;28;20041;-64
2023/01/24 08:06:24;;;;;;;30.30;15.02;;;3.50;90.00;;;;;;5026179;28;20034;-63
2023/01/24 08:08:49;;;;;;;31.02;15.30;;;3.40;90.00;;;;;;5025079;28;20034;-64
2023/01/24 08:11:17;;;;;;;29.10;15.68;;;3.50;90.00;;;;;;5021177;28;20041;-63
2023/01/24 08:13:43;;;;;;;27.52;15.02;;;3.50;90.00;;;;;;5023584;28;20036;-64
2023/01/24 08:16:09;;;;;;;28.95;15.13;;;3.40;90.00;;;;;;5025930;28;20095;-63
2023/01/24 08:18:37;;;;;;;28.10;14.68;;;3.50;90.10;;;;;;5023496;28;20120;-64
2023/01/24 08:21:04;;;;;;;32.42;16.15;;;3.50;90.10;;;;;;5025410;28;20165;-64
2023/01/24 08:23:29;;;;;;;28.42;14.75;;;3.50;90.10;;;;;;5024113;28;20033;-63
2023/01/24 08:25:57;;;;;;;29.33;13.35;;;3.50;90.00;;;;;;5025123;28;20316;-64
2023/01/24 08:28:23;;;;;;;25.85;13.05;;;3.50;90.10;;;;;;5024478;28;20082;-64
2023/01/24 08:30:49;;;;;;;25.65;13.88;;;3.50;90.10;;;;;;5025014;28;20053;-63
2023/01/24 08:33:18;;;;;;;23.35;12.75;;;3.50;90.10;;;;;;5025684;28;20404;-64
2023/01/24 08:35:45;;;;;;;24.25;13.32;;;3.50;90.10;;;;;;5025543;28;20041;-64
2023/01/24 08:38:11;;;;;;;28.83;15.07;;;3.50;90.10;;;;;;5024829;28;20124;-64
2023/01/24 08:40:36;;;;;;;28.25;14.93;;;3.50;90.10;;;;;;5023409;28;20112;-63
2023/01/24 08:43:02;;;;;;;28.30;13.57;;;3.50;90.40;;;;;;5024163;28;20111;-64
2023/01/24 08:45:28;;;;;;;29.60;14.25;;;3.50;90.00;;;;;;5025650;28;20038;-64
2023/01/24 08:47:54;;;;;;;28.70;14.40;;;3.50;90.00;;;;;;5024313;28;20040;-64
2023/01/24 08:50:20;;;;;;;29.02;14.32;;;3.60;90.00;;;;;;5025738;28;20034;-64
2023/01/24 08:52:47;;;;;;;29.88;14.77;;;3.60;90.10;;;;;;5022920;28;20045;-64
2023/01/24 08:55:12;;;;;;;27.95;14.95;;;3.60;90.10;;;;;;5024186;28;20548;-64
2023/01/24 08:57:38;;;;;;;29.23;14.65;;;3.50;90.00;;;;;;5024747;28;20041;-64
2023/01/24 09:00:04;;;;;;;27.75;15.35;;;3.60;90.10;;;;;;5023874;28;20032;-64
2023/01/24 09:02:32;;;;;;;29.77;15.57;;;3.60;90.10;;;;;;5021106;28;20052;-64
2023/01/24 09:04:58;;;;;;;30.02;15.90;;;3.60;90.10;;;;;;5023835;28;20040;-64
2023/01/24 09:07:24;;;;;;;32.20;15.70;;;3.60;90.10;;;;;;5025937;28;20480;-64
2023/01/24 09:09:49;;;;;;;29.25;15.40;;;3.60;90.10;;;;;;5026823;28;20041;-63
2023/01/24 09:12:15;;;;;;;30.58;16.45;;;3.60;90.10;;;;;;5025670;28;20040;-63
2023/01/24 09:14:40;;;;;;;26.65;14.65;;;3.60;90.10;;;;;;5022452;28;20030;-64
2023/01/24 09:17:06;;;;;;;29.60;15.93;;;3.60;90.10;;;;;;5025029;28;20029;-63
2023/01/24 09:19:32;;;;;;;27.90;14.27;;;3.70;90.40;;;;;;5025399;28;20052;-64
2023/01/24 09:21:57;;;;;;;32.47;15.98;;;3.60;90.00;;;;;;5024538;28;20450;-64
2023/01/24 09:24:24;;;;;;;28.45;15.77;;;3.70;90.10;;;;;;5026248;28;20048;-64
2023/01/24 09:26:49;;;;;;;31.83;15.70;;;3.70;90.10;;;;;;5027992;28;20084;-64
2023/01/24 09:29:15;;;;;;;31.25;15.05;;;3.60;90.00;;;;;;5028233;28;20083;-64
2023/01/24 09:31:40;;;;;;;32.90;15.88;;;3.70;90.00;;;;;;5029910;28;20124;-64
2023/01/24 09:34:06;;;;;;;27.83;15.00;;;3.70;90.00;;;;;;5028530;28;20036;-63
2023/01/24 09:36:31;;;;;;;29.25;14.48;;;3.60;90.00;;;;;;5028223;28;20536;-63
2023/01/24 09:38:57;;;;;;;29.92;15.88;;;3.70;90.00;;;;;;5028762;28;20326;-64
2023/01/24 09:41:44;;;;;;;28.80;14.75;;;3.70;90.00;;;;;;5028113;28;20034;-64
2023/01/24 09:44:33;;;;;;;33.75;15.55;;;3.60;90.10;;;;;;5028670;28;20029;-63
2023/01/24 09:47:06;;;;;;;29.25;14.75;;;3.70;90.10;;;;;;5028718;28;20505;-64
2023/01/24 09:50:04;;;;;;;29.92;14.45;;;3.60;90.00;;;;;;5029505;28;20033;-63
2023/01/24 09:52:42;;;;;;;26.15;13.43;;;3.60;90.40;;;;;;5025532;28;20041;-64
2023/01/24 09:55:16;;;;;;;26.45;14.15;;;3.60;90.10;;;;;;5027198;28;20040;-64
2023/01/24 09:57:49;;;;;;;29.55;14.05;;;3.60;90.00;;;;;;5028522;28;20057;-64
2023/01/24 10:00:36;;;;;;;26.63;13.82;;;3.60;90.00;;;;;;5028300;28;20670;-64
2023/01/24 10:03:12;;;;;;;25.17;13.63;;;3.60;90.00;;;;;;5027424;28;20041;-64
2023/01/24 10:05:42;;;;;;;30.02;14.80;;;3.60;90.00;;;;;;5028054;28;20517;-63
2023/01/24 10:08:48;;;;;;;28.63;15.07;;;3.60;90.10;;;;;;5027943;28;20141;-64
2023/01/24 10:11:20;;;;;;;24.42;12.90;;;3.60;90.10;;;;;;5024823;28;20435;-64
2023/01/24 10:13:58;;;;;;;25.88;13.15;;;3.60;90.10;;;;;;5027276;28;20033;-64
2023/01/24 10:16:45;;;;;;;24.27;13.55;;;3.50;90.00;;;;;;5029049;28;20025;-63
2023/01/24 10:19:26;;;;;;;25.23;13.70;;;3.70;90.10;;;;;;5027611;28;20033;-63
2023/01/24 10:22:13;;;;;;;23.83;14.15;;;3.60;90.00;;;;;;5027948;28;20051;-63
2023/01/24 10:24:41;;;;;;;26.30;13.35;;;3.70;90.00;;;;;;5027176;28;20042;-63
2023/01/24 10:27:26;;;;;;;23.83;13.38;;;3.60;90.00;;;;;;5028594;28;20094;-64
2023/01/24 10:29:55;;;;;;;;;;;3.70;90.10;;;;;;5028386;28;20069;-63
2023/01/24 10:32:30;;;;;;;22.55;12.48;;;3.70;90.30;;;;;;5028862;28;19920;-64
2023/01/24 10:35:02;;;;;;;22.45;12.82;;;3.70;90.00;;;;;;5024518;28;20037;-64
2023/01/24 10:37:37;;;;;;;23.58;12.75;;;3.70;89.90;;;;;;5027791;28;20107;-63
2023/01/24 10:40:14;;;;;;;26.02;13.32;;;3.70;89.90;;;;;;5027679;28;20037;-63
2023/01/24 10:42:40;;;;;;;22.67;12.68;;;3.70;90.00;;;;;;5027467;28;20029;-63
2023/01/24 10:45:34;;;;;;;24.58;13.40;;;3.70;90.00;;;;;;5026977;28;20047;-63
2023/01/24 10:48:18;;;;;;;19.98;12.43;;;3.70;90.10;;;;;;5028255;28;20038;-63
2023/01/24 10:50:45;;;;;;;25.13;13.70;;;3.80;90.00;;;;;;5028710;28;20627;-64
2023/01/24 10:53:33;;;;;;;22.77;12.40;;;3.70;90.00;;;;;;5027208;28;20444;-64
2023/01/24 10:56:02;;;;;;;25.08;13.00;;;3.70;89.90;;;;;;5026468;28;20460;-62
2023/01/24 10:59:00;;;;;;;21.02;12.80;;;3.80;90.00;;;;;;5027240;28;20057;-63
2023/01/24 11:01:39;;;;;;;25.42;12.23;;;3.80;90.10;;;;;;5023292;28;20037;-64
2023/01/24 11:04:25;;;;;;;19.90;11.65;;;3.80;90.40;;;;;;5026275;28;20068;-63
2023/01/24 11:06:51;;;;;;;22.52;12.50;;;3.80;90.10;;;;;;5028583;28;20667;-64
2023/01/24 11:09:26;;;;;;;21.73;12.60;;;3.80;90.00;;;;;;5028491;28;20057;-64
2023/01/24 11:11:58;;;;;;;21.67;11.95;;;3.80;90.00;;;;;;5024416;28;20037;-64
2023/01/24 11:14:27;;;;;;;23.20;12.65;;;3.80;90.00;;;;;;5027006;28;20128;-64
2023/01/24 11:16:57;;;;;;;23.52;13.35;;;3.80;90.00;;;;;;5028053;28;20545;-64
2023/01/24 11:19:31;;;;;;;21.88;12.35;;;3.90;90.00;;;;;;5026771;28;20116;-64
2023/01/24 11:22:02;;;;;;;21.40;12.27;;;3.80;90.00;;;;;;5026546;28;20079;-64
2023/01/24 11:24:29;;;;;;;22.42;11.98;;;3.90;90.00;;;;;;5027167;28;20040;-64
2023/01/24 11:27:01;;;;;;;21.38;12.38;;;3.90;90.00;;;;;;5027492;28;20429;-63
2023/01/24 11:29:26;;;;;;;24.55;13.43;;;3.90;90.00;;;;;;5027102;28;20539;-64
2023/01/24 11:32:01;;;;;;;25.30;13.35;;;3.90;90.00;;;;;;5026392;28;20041;-63
2023/01/24 11:34:57;;;;;;;25.13;13.20;;;3.90;90.00;;;;;;5027360;28;20051;-64
2023/01/24 11:37:25;;;;;;;24.42;12.30;;;3.90;90.00;;;;;;5025478;28;20127;-64
2023/01/24 11:40:06;;;;;;;24.65;12.48;;;3.90;90.00;;;;;;5025164;28;20033;-64
2023/01/24 11:43:01;;;;;;;20.48;12.68;;;3.90;89.80;;;;;;5024309;28;20686;-64
2023/01/24 11:45:50;;;;;;;24.23;12.55;;;4.00;89.80;;;;;;5027763;28;20172;-63
2023/01/24 11:48:19;;;;;;;23.08;12.48;;;4.00;89.80;;;;;;5025827;28;20037;-63
2023/01/24 11:50:51;;;;;;;23.80;12.73;;;4.00;89.60;;;;;;5026293;28;20048;-64
2023/01/24 11:53:45;;;;;;;23.42;13.07;;;4.00;89.60;;;;;;5025933;28;20480;-63
2023/01/24 11:56:21;;;;;;;23.73;12.95;;;4.00;90.30;;;;;;5025245;28;20044;-63
2023/01/24 11:59:23;;;;;;;23.90;13.23;;;4.00;89.80;;;;;;5023314;28;20524;-63
2023/01/24 12:02:00;;;;;;;25.63;13.02;;;4.00;90.00;;;;;;5026626;28;20600;-63
2023/01/24 12:04:34;;;;;;;20.25;12.23;;;4.00;89.80;;;;;;5024447;28;20065;-64
2023/01/24 12:07:18;;;;;;;27.27;13.40;;;4.00;89.80;;;;;;5025647;28;20029;-63
2023/01/24 12:10:20;;;;;;;19.97;12.30;;;4.00;89.80;;;;;;5026776;28;20288;-63
2023/01/24 12:13:13;;;;;;;24.77;12.80;;;4.10;90.00;;;;;;5024825;28;20080;-62
2023/01/24 12:16:13;;;;;;;25.50;13.30;;;4.10;89.70;;;;;;5026725;28;20133;-63
2023/01/24 12:18:57;;;;;;;26.45;13.35;;;4.10;89.80;;;;;;5025642;28;20025;-63
2023/01/24 12:21:23;;;;;;;25.20;13.25;;;4.10;89.50;;;;;;5026623;28;20040;-63
2023/01/24 12:24:02;;;;;;;28.33;15.13;;;4.10;89.40;;;;;;5023326;28;20041;-64
2023/01/24 12:26:40;;;;;;;24.20;13.52;;;4.10;89.60;;;;;;5025815;28;20067;-64
2023/01/24 12:29:23;;;;;;;22.23;12.57;;;4.10;89.60;;;;;;5025109;28;20029;-62
2023/01/24 12:31:58;;;;;;;22.58;12.20;;;4.10;89.50;;;;;;5025464;28;20050;-64
2023/01/24 12:34:47;;;;;;;;;;;4.10;89.60;;;;;;5026721;28;20489;-63
2023/01/24 12:37:18;;;;;;;21.42;11.45;;;4.10;90.00;;;;;;4997137;28;20303;-63
2023/01/24 12:40:07;;;;;;;24.52;11.82;;;4.10;89.30;;;;;;5025208;28;20037;-63
2023/01/24 12:42:44;;;;;;;25.42;13.73;;;4.10;89.70;;;;;;5024907;28;20065;-63
2023/01/24 12:45:17;;;;;;;26.77;14.35;;;4.10;89.70;;;;;;5025699;28;20072;-63
2023/01/24 12:47:51;;;;;;;26.90;13.85;;;4.10;89.60;;;;;;5026275;28;20038;-63
2023/01/24 12:50:30;;;;;;;24.35;12.98;;;4.10;89.50;;;;;;5025140;28;20053;-63
2023/01/24 12:53:19;;;;;;;28.13;13.45;;;4.10;89.60;;;;;;5024597;28;20029;-64
2023/01/24 12:56:09;;;;;;;23.48;12.88;;;4.10;89.60;;;;;;5025266;28;20037;-63
2023/01/24 12:58:37;;;;;;;28.75;13.73;;;4.10;89.70;;;;;;5024075;28;20067;-63
2023/01/24 13:01:05;;;;;;;26.17;13.55;;;4.20;89.60;;;;;;5025828;28;20046;-63
2023/01/24 13:03:42;;;;;;;25.17;13.00;;;4.20;89.60;;;;;;5024901;28;20038;-63
2023/01/24 13:06:19;;;;;;;25.48;12.68;;;4.20;89.50;;;;;;5024241;28;20316;-62
2023/01/24 13:09:00;;;;;;;23.27;12.60;;;4.20;89.50;;;;;;5026939;28;20114;-63
2023/01/24 13:11:29;;;;;;;21.25;12.60;;;4.20;89.50;;;;;;5022806;28;20128;-63
2023/01/24 13:14:17;;;;;;;23.25;12.20;;;4.20;89.40;;;;;;5024586;28;20055;-63
2023/01/24 13:17:13;;;;;;;24.83;12.07;;;4.20;89.40;;;;;;5024367;28;20079;-63
2023/01/24 13:19:54;;;;;;;24.98;12.27;;;4.20;89.50;;;;;;5025780;28;20075;-62
2023/01/24 13:22:25;;;;;;;24.65;12.65;;;4.20;89.30;;;;;;5025034;28;20040;-63
2023/01/24 13:24:58;;;;;;;25.42;13.05;;;4.20;90.10;;;;;;5023714;28;20078;-63
2023/01/24 13:27:39;;;;;;;23.65;12.90;;;4.20;89.40;;;;;;5023827;28;20566;-63
2023/01/24 13:30:13;;;;;;;25.77;13.45;;;4.20;89.40;;;;;;5025509;28;20540;-62